• Join FlightAware (Why Join?)
  • Login
  • US Flag 
08:06AM EST


 

Airport Tracker/Info


-or-


 

Live Flight TrackerFlight Track Log ✈ FIN666 ✈ 14-Jun-2014 ✈ EKCH / CPH - EFHK / HEL

Flight Track Log - Related Links

Times and Time Zones

All times are in EDT time to prevent confusion due to time zone crossing. See the FIN666 flight status page for this flight to view local times or setup timezone preferences in your user account.

Time Position Orientation Groundspeed Altitude Reporting Facility
EDT Latitude Longitude Course Direction KTS MPH feet Rate Location/Type
07:30AM 55.8420 13.1192 49° Northeast  Level Estimated
07:31AM 55.9164 13.2747 50° Northeast  Level Estimated
07:32AM 55.9905 13.4309 50° Northeast  Level Estimated
07:33AM 56.0644 13.5877 50° Northeast  Level Estimated
07:34AM 56.1381 13.7451 50° Northeast  Level Estimated
07:35AM 56.2117 13.9031 50° Northeast  Level Estimated
07:36AM 56.2850 14.0617 50° Northeast  Level Estimated
07:37AM 56.3581 14.2208 50° Northeast  Level Estimated
07:38AM 56.4310 14.3807 50° Northeast  Level Estimated
07:39AM 56.5037 14.5411 51° Northeast  Level Estimated
07:40AM 56.5762 14.7021 51° Northeast  Level Estimated
07:41AM 56.6485 14.8638 51° Northeast  Level Estimated
07:42AM 56.7206 15.0260 51° Northeast  Level Estimated
07:43AM 56.7925 15.1889 51° Northeast  Level Estimated
07:44AM 56.8641 15.3525 51° Northeast  Level Estimated
07:45AM 56.9356 15.5166 51° Northeast  Level Estimated
07:46AM 57.0068 15.6814 52° Northeast  Level Estimated
07:47AM 57.0778 15.8468 52° Northeast  Level Estimated
07:48AM 57.1486 16.0129 52° Northeast  Level Estimated
07:49AM 57.2192 16.1795 52° Northeast  Level Estimated
07:50AM 57.2895 16.3468 52° Northeast  Level Estimated
07:51AM 57.3596 16.5148 52° Northeast  Level Estimated
07:52AM 57.4285 16.6810 52° Northeast  Level Estimated
07:53AM 57.4972 16.8479 52° Northeast  Level Estimated
07:54AM 57.5657 17.0154 53° Northeast  Level Estimated
07:55AM 57.6340 17.1835 53° Northeast  Level Estimated
07:56AM 57.7020 17.3522 53° Northeast  Level Estimated
07:57AM 57.7698 17.5216 53° Northeast  Level Estimated
07:58AM 57.8374 17.6916 53° Northeast  Level Estimated
07:59AM 57.9047 17.8622 53° Northeast  Level Estimated
08:00AM 57.9719 18.0335 53° Northeast  Level Estimated
08:01AM 58.0387 18.2054 54° Northeast  Level Estimated
08:02AM 58.1054 18.3780 54° Northeast  Level Estimated
08:03AM 58.1718 18.5512 54° Northeast  Level Estimated
08:04AM 58.2380 18.7251 54° Northeast  Level Estimated
08:05AM 58.3040 18.8996 54° Northeast  Level Estimated
08:06AM 58.3697 19.0747 54° Northeast  Level Estimated
08:07AM 58.4352 19.2505 55° Northeast  Level Estimated
08:08AM 58.5004 19.4270 55° Northeast  Level Estimated
08:09AM 58.5654 19.6041 55° Northeast  Level Estimated
08:10AM 58.6301 19.7819 55° Northeast  Level Estimated
08:11AM 58.6946 19.9604 55° Northeast  Level Estimated
08:12AM 58.7589 20.1395 55° Northeast  Level Estimated
08:13AM 58.8229 20.3192 55° Northeast  Level Estimated
08:14AM 58.8866 20.4996 56° Northeast  Level Estimated
08:15AM 58.9501 20.6807 56° Northeast  Level Estimated
08:16AM 59.0134 20.8625 56° Northeast  Level Estimated
08:17AM 59.0763 21.0449 56° Northeast  Level Estimated
08:18AM 59.1391 21.2280 56° Northeast  Level Estimated
08:19AM 59.2015 21.4118 56° Northeast  Level Estimated
08:20AM 59.2638 21.5962 57° Northeast  Level Estimated
08:21AM 59.3275 21.7867 57° Northeast  Level Estimated
08:22AM 59.3910 21.9779 57° Northeast  Level Estimated
08:23AM 59.4542 22.1698 57° Northeast  Level Estimated
08:24AM 59.5171 22.3625 57° Northeast  Level Estimated
08:25AM 59.5797 22.5558 57° Northeast  Level Estimated
08:26AM 59.6420 22.7499 58° Northeast  Level Estimated
08:27AM 59.7040 22.9447 58° Northeast  Level Estimated
08:28AM 59.7658 23.1402 58° Northeast  Level Estimated
08:29AM 59.8273 23.3364 58° Northeast  Level Estimated
08:30AM 59.8884 23.5334 58° Northeast  Level Estimated
08:31AM 59.9493 23.7311 58° Northeast  Level Estimated
08:32AM 60.0099 23.9295 59° Northeast  Level Estimated
08:33AM 60.0701 24.1286 59° Northeast  Level Estimated
08:34AM 60.1301 24.3285 59° Northeast  Level Estimated
08:35AM 60.1898 24.5291 59° Northeast  Level Estimated
08:36AM 60.2492 24.7304 59° Northeast  Level Estimated
08:37AM 60.3082 24.9324 59° Northeast  Level Estimated
08:38AM 60.3172 24.9633 60° Northeast  Level Estimated
08:39AM 60.3172 24.9633 North  Level Estimated
08:40AM 60.3172 24.9633 North  Level Estimated
08:41AM 60.3172 24.9633 North  Level Estimated
08:42AM 60.3172 24.9633 North  Level Estimated
08:43AM 60.3172 24.9633 North  Level Estimated
08:44AM 60.3172 24.9633 North  Level Estimated
08:45AM 60.3172 24.9633 North  Level Estimated
08:46AM 60.3172 24.9633 North  Level Estimated
08:47AM 60.3172 24.9633 North  Level Estimated
08:48AM 60.3172 24.9633 North  Level Estimated
08:49AM 60.3172 24.9633 North  Level Estimated
08:50AM 60.3172 24.9633 North  Level Estimated
08:51AM 60.3172 24.9633 North  Level Estimated
08:52AM 60.3172 24.9633 North  Level Estimated